sensor_id;sensor_type;location;lat;lon;timestamp;P1;durP1;ratioP1;P2;durP2;ratioP2
52396;SDS011;38322;53.108;6.308;2023-02-05T06:03:19;7.38;;;0.50;;
52396;SDS011;38322;53.108;6.308;2023-02-05T06:05:46;9.52;;;1.70;;
52396;SDS011;38322;53.108;6.308;2023-02-05T06:08:12;12.82;;;0.82;;
52396;SDS011;38322;53.108;6.308;2023-02-05T06:10:40;11.98;;;1.35;;
52396;SDS011;38322;53.108;6.308;2023-02-05T06:13:07;7.45;;;0.93;;
52396;SDS011;38322;53.108;6.308;2023-02-05T06:15:33;12.30;;;1.58;;
52396;SDS011;38322;53.108;6.308;2023-02-05T06:17:59;12.30;;;1.75;;
52396;SDS011;38322;53.108;6.308;2023-02-05T06:20:25;9.77;;;1.50;;
52396;SDS011;38322;53.108;6.308;2023-02-05T06:22:51;9.90;;;1.63;;
52396;SDS011;38322;53.108;6.308;2023-02-05T06:25:17;8.50;;;1.02;;
52396;SDS011;38322;53.108;6.308;2023-02-05T06:27:42;9.75;;;0.98;;
52396;SDS011;38322;53.108;6.308;2023-02-05T06:30:08;12.25;;;2.72;;
52396;SDS011;38322;53.108;6.308;2023-02-05T06:32:35;9.98;;;2.72;;
52396;SDS011;38322;53.108;6.308;2023-02-05T06:35:01;10.27;;;1.02;;
52396;SDS011;38322;53.108;6.308;2023-02-05T06:37:27;12.25;;;2.17;;
52396;SDS011;38322;53.108;6.308;2023-02-05T06:39:53;21.92;;;2.03;;
52396;SDS011;38322;53.108;6.308;2023-02-05T06:42:20;12.93;;;1.65;;
52396;SDS011;38322;53.108;6.308;2023-02-05T06:44:46;7.30;;;1.10;;
52396;SDS011;38322;53.108;6.308;2023-02-05T06:47:12;8.43;;;2.22;;
52396;SDS011;38322;53.108;6.308;2023-02-05T06:49:37;12.52;;;1.30;;
52396;SDS011;38322;53.108;6.308;2023-02-05T06:52:03;7.55;;;1.00;;
52396;SDS011;38322;53.108;6.308;2023-02-05T06:54:29;16.70;;;2.10;;
52396;SDS011;38322;53.108;6.308;2023-02-05T06:56:56;14.40;;;2.15;;
52396;SDS011;38322;53.108;6.308;2023-02-05T06:59:22;14.10;;;2.80;;
52396;SDS011;38322;53.108;6.308;2023-02-05T07:01:48;10.05;;;1.42;;
52396;SDS011;38322;53.108;6.308;2023-02-05T07:04:14;13.85;;;1.10;;
52396;SDS011;38322;53.108;6.308;2023-02-05T07:06:40;16.73;;;1.83;;
52396;SDS011;38322;53.108;6.308;2023-02-05T07:09:05;13.93;;;3.35;;
52396;SDS011;38322;53.108;6.308;2023-02-05T07:11:32;17.40;;;2.25;;
52396;SDS011;38322;53.108;6.308;2023-02-05T07:13:59;17.60;;;2.17;;
52396;SDS011;38322;53.108;6.308;2023-02-05T07:16:26;14.05;;;1.38;;
52396;SDS011;38322;53.108;6.308;2023-02-05T07:18:53;13.95;;;1.45;;
52396;SDS011;38322;53.108;6.308;2023-02-05T07:21:19;13.35;;;1.15;;
52396;SDS011;38322;53.108;6.308;2023-02-05T07:23:44;10.55;;;1.48;;
52396;SDS011;38322;53.108;6.308;2023-02-05T07:26:12;12.02;;;1.95;;
52396;SDS011;38322;53.108;6.308;2023-02-05T07:28:39;16.52;;;2.20;;
52396;SDS011;38322;53.108;6.308;2023-02-05T07:31:08;14.70;;;3.33;;
52396;SDS011;38322;53.108;6.308;2023-02-05T07:33:36;23.35;;;2.95;;
52396;SDS011;38322;53.108;6.308;2023-02-05T07:36:04;17.58;;;2.17;;
52396;SDS011;38322;53.108;6.308;2023-02-05T07:38:31;12.32;;;1.77;;
52396;SDS011;38322;53.108;6.308;2023-02-05T07:40:57;12.95;;;4.43;;
52396;SDS011;38322;53.108;6.308;2023-02-05T07:43:23;20.75;;;2.15;;
52396;SDS011;38322;53.108;6.308;2023-02-05T07:45:57;17.45;;;3.97;;
52396;SDS011;38322;53.108;6.308;2023-02-05T07:48:23;13.35;;;1.58;;
52396;SDS011;38322;53.108;6.308;2023-02-05T07:50:50;12.00;;;1.80;;
52396;SDS011;38322;53.108;6.308;2023-02-05T07:53:16;22.20;;;2.80;;
52396;SDS011;38322;53.108;6.308;2023-02-05T07:55:42;20.20;;;2.15;;
52396;SDS011;38322;53.108;6.308;2023-02-05T07:58:07;23.60;;;3.05;;
52396;SDS011;38322;53.108;6.308;2023-02-05T08:00:33;14.18;;;2.88;;
52396;SDS011;38322;53.108;6.308;2023-02-05T08:02:59;10.20;;;2.45;;
52396;SDS011;38322;53.108;6.308;2023-02-05T08:05:25;13.00;;;1.38;;
52396;SDS011;38322;53.108;6.308;2023-02-05T08:07:51;20.00;;;2.40;;
52396;SDS011;38322;53.108;6.308;2023-02-05T08:10:17;22.15;;;3.58;;
52396;SDS011;38322;53.108;6.308;2023-02-05T08:12:43;12.52;;;2.38;;
52396;SDS011;38322;53.108;6.308;2023-02-05T08:15:09;19.75;;;4.15;;
52396;SDS011;38322;53.108;6.308;2023-02-05T08:17:36;29.88;;;6.03;;
52396;SDS011;38322;53.108;6.308;2023-02-05T08:20:03;20.35;;;3.65;;
52396;SDS011;38322;53.108;6.308;2023-02-05T08:22:33;23.63;;;3.30;;
52396;SDS011;38322;53.108;6.308;2023-02-05T08:25:00;14.30;;;2.75;;
52396;SDS011;38322;53.108;6.308;2023-02-05T08:27:27;12.45;;;3.05;;
52396;SDS011;38322;53.108;6.308;2023-02-05T08:29:52;14.23;;;4.05;;
52396;SDS011;38322;53.108;6.308;2023-02-05T08:32:18;10.20;;;3.47;;
52396;SDS011;38322;53.108;6.308;2023-02-05T08:34:44;17.25;;;4.03;;
52396;SDS011;38322;53.108;6.308;2023-02-05T08:37:10;20.23;;;4.03;;
52396;SDS011;38322;53.108;6.308;2023-02-05T08:39:36;19.27;;;3.17;;
52396;SDS011;38322;53.108;6.308;2023-02-05T08:42:02;19.15;;;3.00;;
52396;SDS011;38322;53.108;6.308;2023-02-05T08:44:28;13.30;;;2.58;;
52396;SDS011;38322;53.108;6.308;2023-02-05T08:46:54;19.50;;;3.85;;
52396;SDS011;38322;53.108;6.308;2023-02-05T08:49:20;15.75;;;5.25;;
52396;SDS011;38322;53.108;6.308;2023-02-05T08:51:46;16.58;;;2.97;;
52396;SDS011;38322;53.108;6.308;2023-02-05T08:54:12;17.77;;;3.88;;
52396;SDS011;38322;53.108;6.308;2023-02-05T08:56:39;12.38;;;4.35;;
52396;SDS011;38322;53.108;6.308;2023-02-05T08:59:07;26.45;;;4.25;;
52396;SDS011;38322;53.108;6.308;2023-02-05T09:01:34;21.27;;;5.50;;
52396;SDS011;38322;53.108;6.308;2023-02-05T09:04:05;25.95;;;4.80;;
52396;SDS011;38322;53.108;6.308;2023-02-05T09:06:32;14.73;;;2.92;;
52396;SDS011;38322;53.108;6.308;2023-02-05T09:08:57;21.83;;;3.65;;
52396;SDS011;38322;53.108;6.308;2023-02-05T09:11:24;19.85;;;5.35;;
52396;SDS011;38322;53.108;6.308;2023-02-05T09:13:52;23.20;;;3.80;;
52396;SDS011;38322;53.108;6.308;2023-02-05T09:16:18;22.65;;;4.68;;
52396;SDS011;38322;53.108;6.308;2023-02-05T09:18:44;25.98;;;5.32;;
52396;SDS011;38322;53.108;6.308;2023-02-05T09:21:10;29.55;;;4.07;;
52396;SDS011;38322;53.108;6.308;2023-02-05T09:23:36;20.42;;;3.95;;
52396;SDS011;38322;53.108;6.308;2023-02-05T09:26:02;28.08;;;5.35;;
52396;SDS011;38322;53.108;6.308;2023-02-05T09:28:28;30.17;;;5.80;;
52396;SDS011;38322;53.108;6.308;2023-02-05T09:30:54;14.35;;;4.03;;
52396;SDS011;38322;53.108;6.308;2023-02-05T09:33:20;18.25;;;2.60;;
52396;SDS011;38322;53.108;6.308;2023-02-05T09:35:46;32.80;;;8.18;;
52396;SDS011;38322;53.108;6.308;2023-02-05T09:38:12;28.42;;;5.70;;
52396;SDS011;38322;53.108;6.308;2023-02-05T09:40:45;30.38;;;6.63;;
52396;SDS011;38322;53.108;6.308;2023-02-05T09:43:19;13.05;;;2.60;;
52396;SDS011;38322;53.108;6.308;2023-02-05T09:45:57;11.63;;;2.05;;
52396;SDS011;38322;53.108;6.308;2023-02-05T09:51:08;11.50;;;1.83;;
52396;SDS011;38322;53.108;6.308;2023-02-05T09:53:40;9.13;;;1.83;;
52396;SDS011;38322;53.108;6.308;2023-02-05T09:56:10;13.65;;;3.50;;
52396;SDS011;38322;53.108;6.308;2023-02-05T09:58:39;17.55;;;2.83;;
52396;SDS011;38322;53.108;6.308;2023-02-05T10:01:12;22.65;;;4.57;;
52396;SDS011;38322;53.108;6.308;2023-02-05T10:03:47;25.05;;;4.45;;
52396;SDS011;38322;53.108;6.308;2023-02-05T10:11:41;58.67;;;7.68;;
52396;SDS011;38322;53.108;6.308;2023-02-05T10:14:25;44.15;;;6.95;;
52396;SDS011;38322;53.108;6.308;2023-02-05T10:17:14;34.50;;;6.57;;
52396;SDS011;38322;53.108;6.308;2023-02-05T10:22:33;32.33;;;7.38;;
52396;SDS011;38322;53.108;6.308;2023-02-05T10:33:49;14.55;;;3.03;;
52396;SDS011;38322;53.108;6.308;2023-02-05T10:36:22;8.40;;;2.05;;
52396;SDS011;38322;53.108;6.308;2023-02-05T10:38:51;13.00;;;1.92;;
52396;SDS011;38322;53.108;6.308;2023-02-05T10:41:37;9.48;;;1.95;;
52396;SDS011;38322;53.108;6.308;2023-02-05T10:44:11;9.20;;;1.65;;
52396;SDS011;38322;53.108;6.308;2023-02-05T10:46:47;11.23;;;1.10;;
52396;SDS011;38322;53.108;6.308;2023-02-05T10:51:50;12.63;;;3.42;;
52396;SDS011;38322;53.108;6.308;2023-02-05T10:54:19;19.58;;;2.90;;
52396;SDS011;38322;53.108;6.308;2023-02-05T10:56:52;14.65;;;2.80;;
52396;SDS011;38322;53.108;6.308;2023-02-05T10:59:19;9.15;;;2.17;;
52396;SDS011;38322;53.108;6.308;2023-02-05T11:01:48;10.00;;;3.08;;
52396;SDS011;38322;53.108;6.308;2023-02-05T11:04:16;26.92;;;5.68;;
52396;SDS011;38322;53.108;6.308;2023-02-05T11:06:50;13.48;;;2.83;;
52396;SDS011;38322;53.108;6.308;2023-02-05T11:11:55;23.00;;;5.05;;
52396;SDS011;38322;53.108;6.308;2023-02-05T11:14:26;36.83;;;6.03;;
52396;SDS011;38322;53.108;6.308;2023-02-05T11:16:55;27.58;;;6.05;;
52396;SDS011;38322;53.108;6.308;2023-02-05T11:19:22;25.23;;;4.95;;
52396;SDS011;38322;53.108;6.308;2023-02-05T11:21:53;34.60;;;4.68;;
52396;SDS011;38322;53.108;6.308;2023-02-05T11:26:50;25.15;;;6.15;;
52396;SDS011;38322;53.108;6.308;2023-02-05T11:29:34;25.25;;;5.38;;
52396;SDS011;38322;53.108;6.308;2023-02-05T11:32:00;22.13;;;5.78;;
52396;SDS011;38322;53.108;6.308;2023-02-05T11:34:26;30.95;;;6.88;;
52396;SDS011;38322;53.108;6.308;2023-02-05T11:36:53;22.55;;;4.80;;
52396;SDS011;38322;53.108;6.308;2023-02-05T11:39:28;20.73;;;4.97;;
52396;SDS011;38322;53.108;6.308;2023-02-05T11:44:55;18.80;;;5.30;;
52396;SDS011;38322;53.108;6.308;2023-02-05T11:47:26;26.35;;;5.13;;
52396;SDS011;38322;53.108;6.308;2023-02-05T11:49:52;19.65;;;3.60;;
52396;SDS011;38322;53.108;6.308;2023-02-05T11:52:25;22.83;;;6.78;;
52396;SDS011;38322;53.108;6.308;2023-02-05T11:54:53;16.63;;;3.92;;
52396;SDS011;38322;53.108;6.308;2023-02-05T11:59:55;21.20;;;4.53;;
52396;SDS011;38322;53.108;6.308;2023-02-05T12:07:33;22.85;;;5.88;;
52396;SDS011;38322;53.108;6.308;2023-02-05T12:10:17;18.67;;;5.78;;
52396;SDS011;38322;53.108;6.308;2023-02-05T12:13:05;24.45;;;4.88;;
52396;SDS011;38322;53.108;6.308;2023-02-05T12:15:51;24.52;;;5.05;;
52396;SDS011;38322;53.108;6.308;2023-02-05T12:21:13;31.30;;;6.40;;
52396;SDS011;38322;53.108;6.308;2023-02-05T12:24:06;22.73;;;7.15;;
52396;SDS011;38322;53.108;6.308;2023-02-05T12:26:41;21.15;;;4.75;;
52396;SDS011;38322;53.108;6.308;2023-02-05T12:40:00;21.65;;;3.45;;
52396;SDS011;38322;53.108;6.308;2023-02-05T12:42:31;24.42;;;4.88;;
52396;SDS011;38322;53.108;6.308;2023-02-05T12:45:17;29.40;;;5.18;;
52396;SDS011;38322;53.108;6.308;2023-02-05T12:47:57;31.10;;;5.32;;
52396;SDS011;38322;53.108;6.308;2023-02-05T12:53:12;27.95;;;5.03;;
52396;SDS011;38322;53.108;6.308;2023-02-05T12:56:12;21.58;;;4.15;;
52396;SDS011;38322;53.108;6.308;2023-02-05T13:04:02;23.15;;;4.97;;
52396;SDS011;38322;53.108;6.308;2023-02-05T13:06:32;22.25;;;6.18;;
52396;SDS011;38322;53.108;6.308;2023-02-05T13:09:15;29.52;;;6.05;;
52396;SDS011;38322;53.108;6.308;2023-02-05T13:11:50;29.95;;;5.72;;
52396;SDS011;38322;53.108;6.308;2023-02-05T13:14:38;30.23;;;7.53;;
52396;SDS011;38322;53.108;6.308;2023-02-05T13:17:21;23.98;;;4.00;;
52396;SDS011;38322;53.108;6.308;2023-02-05T13:19:51;19.55;;;5.55;;
52396;SDS011;38322;53.108;6.308;2023-02-05T13:22:24;27.55;;;4.43;;
52396;SDS011;38322;53.108;6.308;2023-02-05T13:28:12;22.83;;;5.22;;
52396;SDS011;38322;53.108;6.308;2023-02-05T13:31:12;29.80;;;6.15;;
52396;SDS011;38322;53.108;6.308;2023-02-05T13:33:49;21.98;;;4.30;;
52396;SDS011;38322;53.108;6.308;2023-02-05T13:39:00;24.55;;;6.57;;
52396;SDS011;38322;53.108;6.308;2023-02-05T13:41:49;19.13;;;7.18;;
52396;SDS011;38322;53.108;6.308;2023-02-05T13:55:22;31.13;;;5.93;;
52396;SDS011;38322;53.108;6.308;2023-02-05T13:58:12;35.80;;;6.90;;
52396;SDS011;38322;53.108;6.308;2023-02-05T14:00:48;29.00;;;6.43;;
52396;SDS011;38322;53.108;6.308;2023-02-05T14:03:24;28.05;;;5.88;;
52396;SDS011;38322;53.108;6.308;2023-02-05T14:05:55;20.60;;;5.90;;
52396;SDS011;38322;53.108;6.308;2023-02-05T14:08:23;30.23;;;4.75;;
52396;SDS011;38322;53.108;6.308;2023-02-05T14:10:55;29.38;;;6.53;;
52396;SDS011;38322;53.108;6.308;2023-02-05T14:13:27;29.15;;;6.43;;
52396;SDS011;38322;53.108;6.308;2023-02-05T14:15:57;28.15;;;5.10;;
52396;SDS011;38322;53.108;6.308;2023-02-05T14:18:45;23.98;;;4.82;;
52396;SDS011;38322;53.108;6.308;2023-02-05T14:23:59;35.13;;;7.30;;
52396;SDS011;38322;53.108;6.308;2023-02-05T14:26:49;30.10;;;5.20;;
52396;SDS011;38322;53.108;6.308;2023-02-05T14:32:09;30.85;;;4.80;;
52396;SDS011;38322;53.108;6.308;2023-02-05T14:37:01;31.55;;;8.38;;
52396;SDS011;38322;53.108;6.308;2023-02-05T14:39:28;32.05;;;8.95;;
52396;SDS011;38322;53.108;6.308;2023-02-05T14:41:58;24.83;;;7.05;;
52396;SDS011;38322;53.108;6.308;2023-02-05T14:44:28;36.13;;;7.78;;
52396;SDS011;38322;53.108;6.308;2023-02-05T14:49:51;42.40;;;6.93;;
52396;SDS011;38322;53.108;6.308;2023-02-05T14:52:26;20.63;;;4.47;;
52396;SDS011;38322;53.108;6.308;2023-02-05T14:54:54;27.20;;;5.93;;
52396;SDS011;38322;53.108;6.308;2023-02-05T15:00:06;25.77;;;4.85;;
52396;SDS011;38322;53.108;6.308;2023-02-05T15:05:41;33.22;;;6.40;;
52396;SDS011;38322;53.108;6.308;2023-02-05T15:13:13;28.20;;;6.35;;
52396;SDS011;38322;53.108;6.308;2023-02-05T15:15:41;28.33;;;7.72;;
52396;SDS011;38322;53.108;6.308;2023-02-05T15:18:43;28.60;;;6.65;;
52396;SDS011;38322;53.108;6.308;2023-02-05T15:24:05;35.25;;;8.20;;
52396;SDS011;38322;53.108;6.308;2023-02-05T15:26:41;29.17;;;5.25;;
52396;SDS011;38322;53.108;6.308;2023-02-05T15:29:15;38.97;;;6.95;;
52396;SDS011;38322;53.108;6.308;2023-02-05T15:31:49;39.95;;;10.77;;
52396;SDS011;38322;53.108;6.308;2023-02-05T15:34:22;30.88;;;7.28;;
52396;SDS011;38322;53.108;6.308;2023-02-05T15:36:53;33.47;;;6.38;;
52396;SDS011;38322;53.108;6.308;2023-02-05T15:39:38;36.83;;;6.05;;
52396;SDS011;38322;53.108;6.308;2023-02-05T15:42:08;31.80;;;7.22;;
52396;SDS011;38322;53.108;6.308;2023-02-05T15:44:40;27.70;;;6.03;;
52396;SDS011;38322;53.108;6.308;2023-02-05T15:47:06;26.10;;;6.45;;
52396;SDS011;38322;53.108;6.308;2023-02-05T15:49:41;27.30;;;5.13;;
52396;SDS011;38322;53.108;6.308;2023-02-05T15:52:14;27.10;;;5.90;;
52396;SDS011;38322;53.108;6.308;2023-02-05T15:54:43;29.38;;;6.45;;
52396;SDS011;38322;53.108;6.308;2023-02-05T15:57:16;24.02;;;5.45;;
52396;SDS011;38322;53.108;6.308;2023-02-05T15:59:46;48.15;;;8.77;;
52396;SDS011;38322;53.108;6.308;2023-02-05T16:02:20;32.15;;;4.47;;
52396;SDS011;38322;53.108;6.308;2023-02-05T16:04:51;34.38;;;7.57;;
52396;SDS011;38322;53.108;6.308;2023-02-05T16:07:21;39.90;;;7.93;;
52396;SDS011;38322;53.108;6.308;2023-02-05T16:09:51;32.80;;;6.05;;
52396;SDS011;38322;53.108;6.308;2023-02-05T16:12:20;31.27;;;7.55;;
52396;SDS011;38322;53.108;6.308;2023-02-05T16:14:55;37.20;;;7.65;;
52396;SDS011;38322;53.108;6.308;2023-02-05T16:17:24;30.23;;;7.15;;
52396;SDS011;38322;53.108;6.308;2023-02-05T16:20:06;31.70;;;5.63;;
52396;SDS011;38322;53.108;6.308;2023-02-05T16:22:43;33.25;;;8.35;;
52396;SDS011;38322;53.108;6.308;2023-02-05T16:25:19;23.83;;;6.93;;
52396;SDS011;38322;53.108;6.308;2023-02-05T16:27:50;31.45;;;6.32;;
52396;SDS011;38322;53.108;6.308;2023-02-05T16:30:29;29.60;;;4.88;;
52396;SDS011;38322;53.108;6.308;2023-02-05T16:32:59;37.33;;;8.55;;
52396;SDS011;38322;53.108;6.308;2023-02-05T16:35:28;22.98;;;8.00;;
52396;SDS011;38322;53.108;6.308;2023-02-05T16:37:59;36.03;;;6.45;;
52396;SDS011;38322;53.108;6.308;2023-02-05T16:40:28;31.83;;;7.20;;
52396;SDS011;38322;53.108;6.308;2023-02-05T16:43:26;39.10;;;6.55;;
52396;SDS011;38322;53.108;6.308;2023-02-05T16:48:30;37.17;;;6.60;;
52396;SDS011;38322;53.108;6.308;2023-02-05T16:50:58;44.63;;;8.25;;
52396;SDS011;38322;53.108;6.308;2023-02-05T16:53:26;51.55;;;7.60;;
52396;SDS011;38322;53.108;6.308;2023-02-05T16:55:56;24.35;;;6.05;;
52396;SDS011;38322;53.108;6.308;2023-02-05T16:58:27;34.30;;;6.95;;
52396;SDS011;38322;53.108;6.308;2023-02-05T17:01:01;27.30;;;5.78;;
52396;SDS011;38322;53.108;6.308;2023-02-05T17:03:33;25.23;;;5.38;;
52396;SDS011;38322;53.108;6.308;2023-02-05T17:06:03;43.25;;;8.27;;
52396;SDS011;38322;53.108;6.308;2023-02-05T17:08:34;36.75;;;9.13;;
52396;SDS011;38322;53.108;6.308;2023-02-05T17:11:02;34.65;;;5.82;;
52396;SDS011;38322;53.108;6.308;2023-02-05T17:13:36;29.30;;;6.53;;
52396;SDS011;38322;53.108;6.308;2023-02-05T17:16:17;44.45;;;8.80;;
52396;SDS011;38322;53.108;6.308;2023-02-05T17:18:58;28.77;;;6.00;;
52396;SDS011;38322;53.108;6.308;2023-02-05T17:21:27;36.70;;;6.50;;
52396;SDS011;38322;53.108;6.308;2023-02-05T17:23:54;31.70;;;5.47;;
52396;SDS011;38322;53.108;6.308;2023-02-05T17:26:23;46.00;;;11.15;;
52396;SDS011;38322;53.108;6.308;2023-02-05T17:28:51;31.63;;;7.15;;
52396;SDS011;38322;53.108;6.308;2023-02-05T17:31:20;36.72;;;7.15;;
52396;SDS011;38322;53.108;6.308;2023-02-05T17:33:51;37.45;;;9.10;;
52396;SDS011;38322;53.108;6.308;2023-02-05T17:36:18;34.70;;;5.90;;
52396;SDS011;38322;53.108;6.308;2023-02-05T17:38:45;38.00;;;8.00;;
52396;SDS011;38322;53.108;6.308;2023-02-05T17:41:16;36.05;;;7.07;;
52396;SDS011;38322;53.108;6.308;2023-02-05T17:44:03;42.65;;;9.52;;
52396;SDS011;38322;53.108;6.308;2023-02-05T17:46:29;38.70;;;8.20;;
52396;SDS011;38322;53.108;6.308;2023-02-05T17:48:55;35.63;;;7.65;;
52396;SDS011;38322;53.108;6.308;2023-02-05T17:51:25;32.40;;;7.85;;
52396;SDS011;38322;53.108;6.308;2023-02-05T17:53:51;44.47;;;9.23;;
52396;SDS011;38322;53.108;6.308;2023-02-05T17:56:17;37.72;;;5.80;;
52396;SDS011;38322;53.108;6.308;2023-02-05T17:58:45;44.85;;;8.10;;
52396;SDS011;38322;53.108;6.308;2023-02-05T18:01:12;48.58;;;10.52;;
52396;SDS011;38322;53.108;6.308;2023-02-05T18:03:38;44.90;;;8.43;;
52396;SDS011;38322;53.108;6.308;2023-02-05T18:06:04;58.22;;;8.63;;
52396;SDS011;38322;53.108;6.308;2023-02-05T18:08:30;44.80;;;7.53;;
52396;SDS011;38322;53.108;6.308;2023-02-05T18:10:56;37.20;;;7.72;;
52396;SDS011;38322;53.108;6.308;2023-02-05T18:13:22;46.00;;;10.13;;
52396;SDS011;38322;53.108;6.308;2023-02-05T18:15:48;39.47;;;8.25;;
52396;SDS011;38322;53.108;6.308;2023-02-05T18:18:16;53.75;;;9.45;;
52396;SDS011;38322;53.108;6.308;2023-02-05T18:20:42;36.00;;;8.85;;
52396;SDS011;38322;53.108;6.308;2023-02-05T18:23:08;39.15;;;7.13;;
52396;SDS011;38322;53.108;6.308;2023-02-05T18:25:34;39.05;;;8.38;;
52396;SDS011;38322;53.108;6.308;2023-02-05T18:28:02;28.45;;;6.82;;
52396;SDS011;38322;53.108;6.308;2023-02-05T18:30:28;46.70;;;8.52;;
52396;SDS011;38322;53.108;6.308;2023-02-05T18:32:54;43.75;;;7.55;;
52396;SDS011;38322;53.108;6.308;2023-02-05T18:35:20;33.08;;;6.63;;
52396;SDS011;38322;53.108;6.308;2023-02-05T18:37:46;46.15;;;7.63;;
52396;SDS011;38322;53.108;6.308;2023-02-05T18:40:12;42.60;;;7.78;;
52396;SDS011;38322;53.108;6.308;2023-02-05T18:42:39;38.45;;;8.18;;
52396;SDS011;38322;53.108;6.308;2023-02-05T18:45:06;41.85;;;7.97;;
52396;SDS011;38322;53.108;6.308;2023-02-05T18:47:32;41.03;;;7.53;;
52396;SDS011;38322;53.108;6.308;2023-02-05T18:49:58;35.10;;;7.45;;
52396;SDS011;38322;53.108;6.308;2023-02-05T18:52:24;49.08;;;11.23;;
52396;SDS011;38322;53.108;6.308;2023-02-05T18:54:52;63.08;;;9.23;;
52396;SDS011;38322;53.108;6.308;2023-02-05T18:57:18;50.30;;;10.18;;
52396;SDS011;38322;53.108;6.308;2023-02-05T18:59:44;44.10;;;8.00;;
52396;SDS011;38322;53.108;6.308;2023-02-05T19:02:10;39.10;;;7.70;;
52396;SDS011;38322;53.108;6.308;2023-02-05T19:04:36;29.05;;;5.07;;
52396;SDS011;38322;53.108;6.308;2023-02-05T19:07:02;42.70;;;8.55;;
52396;SDS011;38322;53.108;6.308;2023-02-05T19:09:28;40.70;;;7.13;;
52396;SDS011;38322;53.108;6.308;2023-02-05T19:11:54;48.13;;;8.27;;
52396;SDS011;38322;53.108;6.308;2023-02-05T19:14:21;41.53;;;7.07;;
52396;SDS011;38322;53.108;6.308;2023-02-05T19:16:48;54.53;;;10.98;;
52396;SDS011;38322;53.108;6.308;2023-02-05T19:19:15;38.72;;;6.25;;
52396;SDS011;38322;53.108;6.308;2023-02-05T19:21:43;38.95;;;8.27;;
52396;SDS011;38322;53.108;6.308;2023-02-05T19:24:10;33.40;;;7.03;;
52396;SDS011;38322;53.108;6.308;2023-02-05T19:26:38;37.38;;;6.72;;
52396;SDS011;38322;53.108;6.308;2023-02-05T19:29:10;37.78;;;6.32;;
52396;SDS011;38322;53.108;6.308;2023-02-05T19:31:38;45.28;;;7.40;;
52396;SDS011;38322;53.108;6.308;2023-02-05T19:34:04;35.90;;;7.68;;
52396;SDS011;38322;53.108;6.308;2023-02-05T19:36:31;42.00;;;7.68;;
52396;SDS011;38322;53.108;6.308;2023-02-05T19:38:59;36.85;;;6.40;;
52396;SDS011;38322;53.108;6.308;2023-02-05T19:41:26;28.40;;;6.55;;
52396;SDS011;38322;53.108;6.308;2023-02-05T19:43:53;34.22;;;5.85;;
52396;SDS011;38322;53.108;6.308;2023-02-05T19:46:22;33.13;;;7.30;;
52396;SDS011;38322;53.108;6.308;2023-02-05T19:48:51;41.22;;;9.57;;
52396;SDS011;38322;53.108;6.308;2023-02-05T19:51:17;25.58;;;6.72;;
52396;SDS011;38322;53.108;6.308;2023-02-05T19:53:44;36.08;;;8.25;;
52396;SDS011;38322;53.108;6.308;2023-02-05T19:56:15;48.08;;;7.55;;
52396;SDS011;38322;53.108;6.308;2023-02-05T19:58:43;45.70;;;7.75;;
52396;SDS011;38322;53.108;6.308;2023-02-05T20:01:17;36.03;;;9.57;;
52396;SDS011;38322;53.108;6.308;2023-02-05T20:03:48;39.40;;;8.30;;
52396;SDS011;38322;53.108;6.308;2023-02-05T20:06:15;37.72;;;5.78;;
52396;SDS011;38322;53.108;6.308;2023-02-05T20:08:42;32.72;;;5.50;;
52396;SDS011;38322;53.108;6.308;2023-02-05T20:11:09;36.58;;;6.05;;
52396;SDS011;38322;53.108;6.308;2023-02-05T20:13:37;34.63;;;6.95;;
52396;SDS011;38322;53.108;6.308;2023-02-05T20:16:05;34.40;;;9.05;;
52396;SDS011;38322;53.108;6.308;2023-02-05T20:18:35;40.63;;;8.27;;
52396;SDS011;38322;53.108;6.308;2023-02-05T20:21:08;34.40;;;6.70;;
52396;SDS011;38322;53.108;6.308;2023-02-05T20:23:37;29.08;;;5.80;;
52396;SDS011;38322;53.108;6.308;2023-02-05T20:26:03;41.88;;;7.18;;
52396;SDS011;38322;53.108;6.308;2023-02-05T20:28:31;32.20;;;6.35;;
52396;SDS011;38322;53.108;6.308;2023-02-05T20:31:20;30.08;;;5.50;;
52396;SDS011;38322;53.108;6.308;2023-02-05T20:34:08;46.17;;;8.40;;
52396;SDS011;38322;53.108;6.308;2023-02-05T20:36:47;40.38;;;9.48;;
52396;SDS011;38322;53.108;6.308;2023-02-05T20:39:15;37.95;;;8.20;;
52396;SDS011;38322;53.108;6.308;2023-02-05T20:41:42;41.40;;;7.07;;
52396;SDS011;38322;53.108;6.308;2023-02-05T20:44:09;32.30;;;6.13;;
52396;SDS011;38322;53.108;6.308;2023-02-05T20:46:35;37.47;;;6.88;;
52396;SDS011;38322;53.108;6.308;2023-02-05T20:49:01;35.55;;;8.10;;
52396;SDS011;38322;53.108;6.308;2023-02-05T20:51:27;22.67;;;5.30;;
52396;SDS011;38322;53.108;6.308;2023-02-05T20:53:55;34.97;;;6.97;;
52396;SDS011;38322;53.108;6.308;2023-02-05T20:56:22;37.20;;;5.97;;
52396;SDS011;38322;53.108;6.308;2023-02-05T20:58:49;35.92;;;8.45;;
